CheckWX is a tool to help pilots better visualize weather data.  It is not intended as a substitute for an official pre-flight weather briefing.

01:55:20 UTC

WAAA TAF
Hasanuddin International Airport
Ujung Pandang-Celebes Island, Indonesia
TAF WAAA 032300Z 0400/0506 12004KT 9999 FEW020 BECMG 0402/0404 29008KT BECMG 0411/0413 11004KT 8000

Jun-4@
00:00 UTC

Jun-4 @ 00:00 UTC

Jun-4@
02:00 UTC

Jun-4 @ 02:00 UTC

TAF WAAA 032300Z 0400/0506 12004KT 9999 FEW020

Expired

Wind
  • 120° at 4 KTS
Cloud Levels
  • Few at 2,000' AGL

Jun-4@
02:00 UTC

Jun-4 @ 02:00 UTC

Jun-4@
11:00 UTC

Jun-4 @ 11:00 UTC

BECMG 0402/0404 29008KT

Expired

Wind
  • 290° at 8 KTS
Cloud Levels
  • Few at 2,000' AGL

Jun-4@
11:00 UTC

Jun-4 @ 11:00 UTC

Jun-5@
06:00 UTC

Jun-5 @ 06:00 UTC

BECMG 0411/0413 11004KT 8000

Becoming

Becoming Conditions expected by Thu, Jun 4, 2020 @ 13:00 UTC

Wind
  • 110° at 4 KTS
Cloud Levels
  • Few at 2,000' AGL